Main page
METAR-TAF:

METAR-TAF

Airports :

Koksijde, Belgium

Koksijde Air Base

latitude: 51-05N, longitude: 002-39E, elevation: 4 m

Current weather observation

The report was made 48 minutes ago, at 06:25 UTC
Wind 12 kt from the West
Temperature 16°C
Humidity 68%
Pressure 1015 hPa
Visibility 10 km or more

METAR: EBFN 190625Z AUTO 28012KT 9999 BKN027/// 16/10 Q1015 BLU

Time: 09:13 (07:13 UTC)

Forecast

The report was made 1 hour and 32 minutes ago, at 05:41 UTC
Forecast valid from 19 at 07 UTC to 19 at 16 UTC
Wind 17 kt from the West/Southwest with gusts up to 27 kt
Visibility 10 km or more
Few clouds at a height of 2500 ft
Scattered clouds at a height of 25000 ft
Probability 30% :
Temporary
from 19 at 07 UTC to 19 at 16 UTC
Wind 20 kt from the West with gusts up to 30 kt
Visibility: 7000 m
Scattered clouds at a height of 2000 ft
Broken clouds at a height of 3000 ft
light rain showers

TAF: EBFN 190541Z 1907/1916 24017G27KT 9999 FEW025 SCT250 PROB30 TEMPO 1907/1916 26020G30KT 7000 -SHRA SCT020 BKN030

Weather observations and forecasts of more than 4000 airports (METAR and TAF reports).

The available stations are represented by yellow and red dots on the map.

Hover mouse over dot to see the name of the station.

Then click to see weather observations and forecasts.

To change the map : click on the green buttons with a black cross to zoom in, on the green button with a dash to zoom out, or on the green arrows for adjacent maps.


METAR-TAF: